Time;durP1;ratioP1;P1;durP2;ratioP2;P2;SDS_P1;SDS_P2;PMS_P1;PMS_P2;Temp;Humidity;BMP_temperature;BMP_pressure;BME280_temperature;BME280_humidity;BME280_pressure;Samples;Min_cycle;Max_cycle;Signal;HPM_P1;HPM_P2
2023/02/20 00:01:18;;;;;;;9.75;4.13;;;6.20;97.70;;;;;;5023874;28;20080;-66
2023/02/20 00:03:46;;;;;;;12.45;4.85;;;6.10;97.70;;;;;;5023673;28;20090;-66
2023/02/20 00:06:12;;;;;;;11.70;4.38;;;6.10;98.00;;;;;;5011550;28;20033;-66
2023/02/20 00:08:37;;;;;;;9.10;3.88;;;6.20;98.00;;;;;;5027011;28;20042;-66
2023/02/20 00:11:03;;;;;;;11.23;4.00;;;6.20;97.80;;;;;;5014176;28;20033;-66
2023/02/20 00:13:29;;;;;;;12.77;4.90;;;6.20;98.00;;;;;;5007957;28;20040;-66
2023/02/20 00:15:55;;;;;;;11.65;4.20;;;6.20;97.90;;;;;;5040376;28;20060;-67
2023/02/20 00:18:20;;;;;;;11.75;4.13;;;6.10;98.00;;;;;;5015863;28;20033;-67
2023/02/20 00:20:46;;;;;;;10.40;3.90;;;6.20;98.00;;;;;;5016438;28;20036;-66
2023/02/20 00:23:12;;;;;;;15.45;4.40;;;6.20;98.00;;;;;;5032685;28;20042;-67
2023/02/20 00:25:37;;;;;;;10.80;4.38;;;6.20;98.00;;;;;;5046811;28;20030;-67
2023/02/20 00:28:03;;;;;;;11.57;3.92;;;6.20;98.00;;;;;;5008204;28;20124;-66
2023/02/20 00:30:29;;;;;;;8.20;3.70;;;6.20;98.00;;;;;;5009800;28;20077;-66
2023/02/20 00:32:56;;;;;;;10.80;4.47;;;6.20;98.00;;;;;;5010596;28;20338;-66
2023/02/20 00:35:23;;;;;;;9.82;4.32;;;6.30;98.00;;;;;;5019787;28;20025;-66
2023/02/20 00:37:49;;;;;;;17.20;4.68;;;6.40;98.00;;;;;;5030053;28;20445;-67
2023/02/20 00:40:16;;;;;;;11.32;4.40;;;6.30;98.00;;;;;;5005234;28;20375;-66
2023/02/20 00:42:42;;;;;;;13.27;4.47;;;6.30;98.00;;;;;;5017998;28;20100;-66
2023/02/20 00:45:09;;;;;;;8.77;4.28;;;6.30;98.00;;;;;;5011501;28;20109;-66
2023/02/20 00:47:34;;;;;;;11.73;4.35;;;6.30;98.00;;;;;;5019085;28;20033;-66
2023/02/20 00:50:00;;;;;;;10.32;4.10;;;6.30;98.00;;;;;;5012082;28;20108;-66
2023/02/20 00:52:25;;;;;;;10.63;4.47;;;6.30;98.00;;;;;;5015583;28;20037;-65
2023/02/20 00:54:51;;;;;;;14.40;5.32;;;6.30;98.00;;;;;;5023855;28;20396;-66
2023/02/20 00:57:17;;;;;;;9.63;4.50;;;6.20;98.00;;;;;;5012254;28;20042;-66
2023/02/20 00:59:42;;;;;;;14.80;5.45;;;6.20;98.00;;;;;;5022821;28;20030;-66
2023/02/20 01:02:08;;;;;;;12.02;4.20;;;6.30;98.00;;;;;;5018102;28;20311;-66
2023/02/20 01:04:34;;;;;;;11.13;5.07;;;6.30;98.00;;;;;;5030099;28;20112;-66
2023/02/20 01:06:59;;;;;;;11.20;4.47;;;6.30;98.00;;;;;;5013440;28;20069;-66
2023/02/20 01:09:26;;;;;;;12.75;4.72;;;6.30;98.00;;;;;;5014241;28;20355;-66
2023/02/20 01:11:53;;;;;;;11.63;5.40;;;6.30;98.00;;;;;;5018667;28;20029;-66
2023/02/20 01:14:19;;;;;;;19.23;6.97;;;6.30;98.00;;;;;;5021093;28;20029;-66
2023/02/20 01:16:50;;;;;;;10.32;4.75;;;6.20;98.00;;;;;;5020160;28;20032;-66
2023/02/20 01:19:17;;;;;;;12.55;4.65;;;6.20;98.00;;;;;;5010328;28;20311;-66
2023/02/20 01:21:42;;;;;;;10.45;4.15;;;6.20;98.00;;;;;;5013078;28;20104;-66
2023/02/20 01:24:08;;;;;;;10.52;4.25;;;6.20;98.00;;;;;;5016012;28;20045;-66
2023/02/20 01:26:35;;;;;;;11.63;4.35;;;6.20;98.00;;;;;;5025478;28;20030;-66
2023/02/20 01:29:01;;;;;;;10.00;5.30;;;6.20;98.00;;;;;;5022269;28;20488;-65
2023/02/20 01:31:26;;;;;;;17.23;4.90;;;6.20;98.00;;;;;;5026058;28;20029;-66
2023/02/20 01:33:52;;;;;;;10.95;4.68;;;6.20;98.00;;;;;;5027798;28;20026;-67
2023/02/20 01:36:17;;;;;;;12.23;4.63;;;6.20;98.00;;;;;;5018415;28;20342;-67
2023/02/20 01:38:43;;;;;;;13.88;4.88;;;6.20;98.00;;;;;;5017750;28;20108;-67
2023/02/20 01:41:10;;;;;;;12.20;5.47;;;6.10;98.00;;;;;;5017484;28;20101;-67
2023/02/20 01:43:36;;;;;;;9.98;4.85;;;6.10;98.00;;;;;;5034884;28;20041;-66
2023/02/20 01:46:26;;;;;;;13.43;4.95;;;6.10;98.00;;;;;;5024119;28;20028;-67
2023/02/20 01:49:10;;;;;;;11.10;4.65;;;6.00;98.00;;;;;;5020919;28;20030;-67
2023/02/20 01:51:41;;;;;;;13.60;5.77;;;6.00;97.80;;;;;;5018299;28;20030;-66
2023/02/20 01:54:10;;;;;;;14.52;5.30;;;6.00;98.00;;;;;;5038273;28;20038;-67
2023/02/20 01:56:37;;;;;;;11.20;5.05;;;5.90;97.80;;;;;;5016427;28;20126;-66
2023/02/20 01:59:05;;;;;;;16.23;6.05;;;5.80;97.50;;;;;;5026712;28;20413;-67
2023/02/20 02:01:32;;;;;;;15.25;5.70;;;5.80;97.80;;;;;;5026983;28;20326;-66
2023/02/20 02:04:03;;;;;;;14.00;5.25;;;5.80;97.70;;;;;;5013692;28;20430;-65
2023/02/20 02:06:30;;;;;;;15.75;5.95;;;5.60;97.10;;;;;;5020429;28;20117;-65
2023/02/20 02:09:01;;;;;;;15.63;5.03;;;5.60;96.60;;;;;;5029308;28;20025;-67
2023/02/20 02:11:27;;;;;;;10.15;5.30;;;5.50;96.70;;;;;;5035067;28;20318;-67
2023/02/20 02:13:53;;;;;;;11.82;5.25;;;5.50;96.90;;;;;;5014907;28;20044;-67
2023/02/20 02:16:56;;;;;;;12.95;5.35;;;5.60;97.60;;;;;;5016829;28;20482;-66
2023/02/20 02:19:53;;;;;;;16.77;6.03;;;5.60;97.60;;;;;;5030011;28;20108;-66
2023/02/20 02:22:47;;;;;;;17.20;5.85;;;5.50;97.50;;;;;;5033642;28;20030;-66
2023/02/20 02:25:40;;;;;;;13.63;5.38;;;5.60;97.90;;;;;;5017017;28;20022;-66
2023/02/20 02:28:39;;;;;;;14.88;5.30;;;5.60;98.00;;;;;;5005601;28;20030;-66
2023/02/20 02:31:13;;;;;;;9.65;5.03;;;5.50;97.90;;;;;;5013212;28;20437;-66
2023/02/20 02:34:10;;;;;;;11.43;5.30;;;5.50;97.80;;;;;;5019272;28;20327;-66
2023/02/20 02:36:46;;;;;;;11.38;5.15;;;5.50;97.90;;;;;;5003119;28;20033;-66
2023/02/20 02:39:47;;;;;;;13.20;5.28;;;5.40;97.60;;;;;;5017792;28;20041;-66
2023/02/20 02:42:23;;;;;;;18.77;6.57;;;5.30;97.50;;;;;;5015528;28;20014;-65
2023/02/20 02:44:55;;;;;;;12.35;5.60;;;5.40;98.00;;;;;;5008812;28;20026;-66
2023/02/20 02:47:32;;;;;;;14.70;5.88;;;5.40;98.00;;;;;;5016161;28;20033;-66
2023/02/20 02:50:06;;;;;;;14.48;5.05;;;5.40;98.00;;;;;;5017027;28;20041;-66
2023/02/20 02:52:39;;;;;;;14.80;5.18;;;5.30;98.00;;;;;;5017165;28;20038;-66
2023/02/20 02:55:09;;;;;;;12.60;5.80;;;5.10;97.00;;;;;;5017735;28;20124;-66
2023/02/20 02:57:34;;;;;;;13.27;6.25;;;5.20;97.50;;;;;;5014719;28;20033;-66
2023/02/20 03:00:01;;;;;;;13.00;5.65;;;5.30;98.00;;;;;;5019824;28;20033;-66
2023/02/20 03:02:43;;;;;;;16.00;5.72;;;5.30;98.00;;;;;;5025327;28;20037;-66
2023/02/20 03:05:10;;;;;;;10.57;5.57;;;5.30;98.00;;;;;;5011179;28;20077;-66
2023/02/20 03:07:38;;;;;;;11.55;5.57;;;5.30;98.00;;;;;;5018613;28;20034;-66
2023/02/20 03:10:10;;;;;;;15.43;5.45;;;5.30;98.00;;;;;;5029501;28;20037;-66
2023/02/20 03:12:39;;;;;;;15.25;5.53;;;5.30;98.00;;;;;;5020279;28;20080;-66
2023/02/20 03:15:36;;;;;;;15.73;5.45;;;5.30;98.00;;;;;;5014693;28;20453;-66
2023/02/20 03:18:23;;;;;;;13.63;5.85;;;5.20;98.00;;;;;;5019584;28;20322;-66
2023/02/20 03:20:57;;;;;;;15.63;6.05;;;5.20;98.00;;;;;;5022981;28;20037;-66
2023/02/20 03:23:30;;;;;;;14.32;6.63;;;5.20;98.00;;;;;;5018971;28;20355;-66
2023/02/20 03:26:00;;;;;;;13.68;5.70;;;5.20;98.00;;;;;;5032253;28;20029;-66
2023/02/20 03:28:43;;;;;;;12.95;6.30;;;5.20;98.00;;;;;;5014713;28;20030;-66
2023/02/20 03:31:16;;;;;;;12.73;6.13;;;5.10;97.50;;;;;;5012410;28;20304;-66
2023/02/20 03:45:04;;;;;;;16.50;6.20;;;5.10;98.00;;;;;;5020498;28;20061;-66
2023/02/20 03:47:33;;;;;;;15.65;5.65;;;5.10;98.00;;;;;;5015147;28;20025;-66
2023/02/20 03:50:00;;;;;;;13.50;5.70;;;5.00;98.00;;;;;;5030347;28;20160;-66
2023/02/20 03:52:26;;;;;;;14.75;6.45;;;5.00;98.00;;;;;;5025746;28;20026;-66
2023/02/20 03:54:52;;;;;;;16.08;6.53;;;4.90;98.00;;;;;;5015438;28;20053;-66
2023/02/20 03:57:25;;;;;;;15.85;5.70;;;4.80;97.80;;;;;;5017683;28;20374;-66
2023/02/20 03:59:55;;;;;;;11.27;5.72;;;4.70;97.80;;;;;;5014623;28;20026;-66
2023/02/20 04:02:38;;;;;;;15.05;5.75;;;4.60;97.10;;;;;;5025699;28;20045;-66
2023/02/20 04:05:18;;;;;;;13.18;5.78;;;4.60;97.00;;;;;;5025875;28;20045;-66
2023/02/20 04:07:53;;;;;;;15.02;6.60;;;4.60;96.70;;;;;;5034425;28;20417;-66
2023/02/20 04:10:23;;;;;;;21.05;6.93;;;4.50;96.90;;;;;;5018263;28;20027;-66
2023/02/20 04:12:51;;;;;;;14.00;6.43;;;4.30;95.80;;;;;;5025892;28;20418;-66
2023/02/20 04:15:19;;;;;;;12.48;5.72;;;4.40;96.00;;;;;;5020679;28;20026;-66
2023/02/20 04:18:06;;;;;;;14.73;6.00;;;4.40;95.90;;;;;;5015568;28;20057;-66
2023/02/20 04:20:32;;;;;;;9.98;5.28;;;4.40;96.40;;;;;;5022727;28;20035;-65
2023/02/20 04:23:07;;;;;;;15.45;5.95;;;4.30;96.20;;;;;;5023113;28;20111;-66
2023/02/20 04:25:38;;;;;;;15.15;5.90;;;4.40;96.10;;;;;;5013553;28;20393;-65
2023/02/20 04:28:04;;;;;;;13.52;6.68;;;4.30;96.00;;;;;;5016640;28;20026;-67
2023/02/20 04:30:30;;;;;;;11.93;6.25;;;4.30;95.50;;;;;;5002047;28;20470;-67
2023/02/20 04:32:56;;;;;;;14.13;7.55;;;4.20;95.70;;;;;;5004571;28;20104;-67
2023/02/20 04:35:22;;;;;;;17.92;7.93;;;4.10;95.00;;;;;;5016571;28;20037;-66
2023/02/20 04:37:47;;;;;;;12.75;6.38;;;4.10;95.10;;;;;;5015852;28;20323;-66
2023/02/20 04:40:16;;;;;;;12.88;6.32;;;4.30;95.80;;;;;;5018204;28;20104;-67
2023/02/20 04:42:42;;;;;;;13.18;5.70;;;4.50;97.20;;;;;;5014007;28;20386;-67
2023/02/20 04:45:08;;;;;;;11.77;5.38;;;4.60;97.60;;;;;;5012942;28;20046;-65
2023/02/20 04:47:33;;;;;;;11.95;5.75;;;4.70;98.00;;;;;;5014299;28;20135;-66
2023/02/20 04:49:59;;;;;;;15.95;6.47;;;4.80;98.00;;;;;;5015080;28;20076;-66
2023/02/20 04:52:24;;;;;;;9.52;5.10;;;4.90;98.00;;;;;;5012483;28;20065;-66
2023/02/20 04:54:50;;;;;;;9.57;5.22;;;5.00;98.00;;;;;;5014177;28;20065;-66
2023/02/20 04:57:17;;;;;;;11.05;5.22;;;5.00;98.00;;;;;;5013919;28;20038;-67
2023/02/20 04:59:43;;;;;;;15.32;5.72;;;5.10;98.00;;;;;;5011813;28;20077;-66
2023/02/20 05:02:09;;;;;;;13.80;4.63;;;5.30;98.00;;;;;;5013193;28;20533;-65
2023/02/20 05:04:34;;;;;;;10.70;4.88;;;5.40;98.00;;;;;;5008593;28;20339;-66
2023/02/20 05:07:01;;;;;;;12.55;4.88;;;5.50;98.00;;;;;;5010361;28;20061;-64
2023/02/20 05:09:27;;;;;;;12.32;5.00;;;5.40;98.00;;;;;;5014719;28;20435;-67
2023/02/20 05:11:52;;;;;;;14.40;5.60;;;5.40;98.00;;;;;;5011160;28;20092;-66
2023/02/20 05:14:20;;;;;;;9.35;4.28;;;5.40;98.00;;;;;;5014149;28;20061;-67
2023/02/20 05:16:46;;;;;;;12.32;4.53;;;5.40;98.00;;;;;;5020177;28;20026;-66
2023/02/20 05:19:12;;;;;;;13.00;4.45;;;5.40;98.00;;;;;;5015369;28;20442;-66
2023/02/20 05:24:27;;;;;;;8.80;4.10;;;5.20;98.00;;;;;;5006499;28;20072;-66
2023/02/20 05:26:53;;;;;;;12.23;4.97;;;5.30;98.00;;;;;;5005312;28;20026;-66
2023/02/20 05:29:18;;;;;;;10.52;5.10;;;5.30;98.00;;;;;;5015197;28;20049;-66
2023/02/20 05:31:44;;;;;;;11.93;4.28;;;5.40;98.00;;;;;;5014880;28;20065;-66
2023/02/20 05:34:09;;;;;;;9.52;4.55;;;5.40;98.00;;;;;;5014839;28;20053;-66
2023/02/20 05:36:35;;;;;;;11.13;5.25;;;5.30;98.00;;;;;;5015158;28;20323;-66
2023/02/20 05:39:01;;;;;;;8.20;4.40;;;5.20;98.00;;;;;;5009060;28;20056;-66
2023/02/20 05:41:27;;;;;;;10.70;4.20;;;5.10;98.00;;;;;;4997623;28;20109;-66
2023/02/20 05:43:56;;;;;;;15.48;5.40;;;5.10;98.00;;;;;;5015077;28;20113;-66
2023/02/20 05:46:23;;;;;;;15.32;8.55;;;5.10;98.00;;;;;;5013982;28;20318;-66
2023/02/20 05:48:49;;;;;;;11.52;4.40;;;5.00;98.00;;;;;;5016054;28;20030;-66
2023/02/20 05:51:27;;;;;;;10.48;4.20;;;4.80;98.00;;;;;;5015067;28;20481;-66
2023/02/20 05:53:52;;;;;;;12.48;4.00;;;4.80;98.00;;;;;;5014220;28;20109;-66
2023/02/20 05:56:19;;;;;;;10.00;4.75;;;4.80;98.00;;;;;;5007130;28;20117;-66
2023/02/20 05:58:45;;;;;;;11.50;4.35;;;4.60;98.00;;;;;;4996218;28;20532;-66
2023/02/20 06:01:19;;;;;;;8.68;3.83;;;4.70;98.00;;;;;;5008244;28;20021;-66
2023/02/20 06:03:45;;;;;;;;;;;4.60;98.00;;;;;;5006371;28;20041;-66
2023/02/20 06:06:11;;;;;;;9.38;4.20;;;4.60;98.00;;;;;;5015117;28;19909;-66
2023/02/20 06:08:38;;;;;;;7.93;4.55;;;4.50;98.00;;;;;;5015644;28;20319;-66
2023/02/20 06:11:03;;;;;;;10.43;5.70;;;4.40;98.00;;;;;;5018017;28;20104;-66
2023/02/20 06:13:29;;;;;;;10.32;4.25;;;4.40;98.00;;;;;;5050596;28;20450;-66
2023/02/20 06:15:54;;;;;;;12.05;4.35;;;4.50;98.00;;;;;;5016109;28;20496;-66
2023/02/20 06:18:20;;;;;;;9.43;4.30;;;4.70;98.00;;;;;;5006753;28;20370;-67
2023/02/20 06:20:45;;;;;;;11.30;4.32;;;4.90;98.00;;;;;;5019111;28;20026;-66
2023/02/20 06:23:11;;;;;;;12.35;4.78;;;5.00;98.00;;;;;;5019112;28;20406;-66
2023/02/20 06:25:37;;;;;;;10.85;4.32;;;5.00;98.00;;;;;;5015994;28;20022;-66
2023/02/20 06:28:03;;;;;;;10.90;4.45;;;5.10;98.00;;;;;;4999985;28;20087;-66
2023/02/20 06:30:28;;;;;;;7.53;3.85;;;5.20;98.00;;;;;;4997935;28;20097;-66
2023/02/20 06:32:54;;;;;;;11.15;4.20;;;5.30;97.90;;;;;;5013179;28;20038;-66
2023/02/20 06:35:19;;;;;;;11.05;4.00;;;5.20;97.90;;;;;;5015698;28;20033;-66
2023/02/20 06:37:45;;;;;;;9.45;4.28;;;5.10;98.00;;;;;;5018054;28;20083;-66
2023/02/20 06:40:14;;;;;;;9.15;4.28;;;5.10;98.00;;;;;;5018835;28;20026;-66
2023/02/20 06:42:39;;;;;;;8.98;3.90;;;5.10;97.90;;;;;;5017830;28;20030;-66
2023/02/20 06:45:05;;;;;;;9.75;3.47;;;5.20;97.50;;;;;;5016650;28;20040;-66
2023/02/20 06:47:31;;;;;;;9.75;3.78;;;5.20;97.50;;;;;;5015757;28;20038;-66
2023/02/20 06:49:56;;;;;;;8.35;3.47;;;5.30;97.00;;;;;;5013958;28;20038;-66
2023/02/20 06:52:22;;;;;;;9.30;3.78;;;5.30;96.80;;;;;;5028840;28;20037;-66
2023/02/20 06:54:47;;;;;;;9.90;3.85;;;5.20;97.10;;;;;;5017182;28;20125;-66
2023/02/20 06:57:16;;;;;;;8.93;3.70;;;5.10;97.00;;;;;;5019030;28;20084;-66
2023/02/20 06:59:46;;;;;;;11.15;4.03;;;5.20;96.90;;;;;;5015044;28;20049;-66
2023/02/20 07:02:12;;;;;;;10.18;4.57;;;5.40;96.60;;;;;;5017082;28;20026;-66
2023/02/20 07:04:38;;;;;;;6.07;3.10;;;5.30;96.80;;;;;;5001309;28;20031;-66
2023/02/20 07:07:04;;;;;;;9.35;3.72;;;5.20;96.50;;;;;;5004158;28;20332;-66
2023/02/20 07:09:30;;;;;;;8.43;3.33;;;5.20;96.70;;;;;;5018203;28;20029;-66
2023/02/20 07:11:56;;;;;;;12.82;3.80;;;5.20;96.80;;;;;;5018200;28;20055;-66
2023/02/20 07:14:21;;;;;;;9.55;3.17;;;5.40;95.80;;;;;;5018001;28;20032;-66
2023/02/20 07:16:47;;;;;;;7.40;3.10;;;5.50;95.40;;;;;;5016170;28;20346;-65
2023/02/20 07:19:13;;;;;;;7.88;3.88;;;5.60;95.10;;;;;;5017353;28;20041;-66
2023/02/20 07:21:38;;;;;;;10.90;3.60;;;5.50;95.30;;;;;;5018760;28;20080;-65
2023/02/20 07:24:07;;;;;;;7.63;3.38;;;5.40;96.00;;;;;;5018035;28;20025;-67
2023/02/20 07:26:38;;;;;;;6.88;3.08;;;5.20;96.70;;;;;;5006440;28;20087;-67
2023/02/20 07:29:05;;;;;;;7.75;3.05;;;5.00;97.30;;;;;;5017909;28;20025;-67
2023/02/20 07:31:34;;;;;;;7.93;3.95;;;4.80;98.00;;;;;;5011145;28;20034;-67
2023/02/20 07:33:59;;;;;;;10.85;5.25;;;4.80;98.00;;;;;;5011695;28;20037;-67
2023/02/20 07:36:25;;;;;;;14.90;7.03;;;4.90;98.00;;;;;;5013006;28;20422;-67
2023/02/20 07:38:59;;;;;;;15.23;7.07;;;4.90;98.00;;;;;;5016992;28;20076;-66
2023/02/20 07:41:28;;;;;;;9.48;4.45;;;5.00;98.00;;;;;;5005344;28;20027;-66
2023/02/20 07:43:54;;;;;;;11.10;4.35;;;5.30;97.60;;;;;;4998140;28;20026;-66
2023/02/20 07:46:20;;;;;;;7.47;3.20;;;5.50;96.30;;;;;;4996660;28;20112;-66
2023/02/20 07:48:46;;;;;;;10.07;4.07;;;5.70;95.40;;;;;;5006123;28;20070;-66
2023/02/20 07:51:11;;;;;;;9.30;4.00;;;5.80;95.10;;;;;;5033685;28;20046;-66
2023/02/20 07:53:37;;;;;;;9.65;4.00;;;5.90;95.00;;;;;;5016549;28;20030;-66
2023/02/20 07:56:05;;;;;;;7.72;3.45;;;6.00;94.30;;;;;;5003534;28;20030;-66
2023/02/20 07:58:30;;;;;;;10.40;4.53;;;6.10;94.60;;;;;;5002291;28;20458;-66
2023/02/20 08:00:56;;;;;;;11.93;5.65;;;6.30;94.00;;;;;;5016138;28;20109;-66
2023/02/20 08:03:21;;;;;;;9.82;5.38;;;6.50;93.40;;;;;;5016324;28;20414;-66
2023/02/20 08:05:47;;;;;;;13.30;5.05;;;6.70;92.10;;;;;;5017265;28;20407;-66
2023/02/20 08:08:13;;;;;;;10.00;3.70;;;6.80;92.30;;;;;;5009030;28;20037;-66
2023/02/20 08:10:38;;;;;;;8.73;4.20;;;7.00;91.70;;;;;;4997656;28;20034;-66
2023/02/20 08:13:04;;;;;;;12.50;4.07;;;7.10;91.10;;;;;;5016296;28;20060;-66
2023/02/20 08:15:30;;;;;;;14.23;5.47;;;7.20;90.40;;;;;;5016835;28;20037;-66
2023/02/20 08:17:55;;;;;;;11.15;4.03;;;7.20;90.70;;;;;;5026975;28;20430;-66
2023/02/20 08:20:21;;;;;;;9.27;4.10;;;7.30;90.60;;;;;;5036686;28;20112;-66
2023/02/20 08:22:48;;;;;;;10.73;4.20;;;7.50;90.80;;;;;;5027480;28;20049;-67
2023/02/20 08:25:14;;;;;;;21.73;10.50;;;8.40;89.80;;;;;;5014022;28;20018;-66
2023/02/20 08:27:45;;;;;;;10.98;6.07;;;9.70;85.40;;;;;;5016823;28;20026;-67
2023/02/20 08:30:22;;;;;;;6.68;3.22;;;10.80;82.50;;;;;;5015563;28;20036;-66
2023/02/20 08:32:52;;;;;;;11.55;5.57;;;11.50;79.50;;;;;;5016222;28;20026;-66
2023/02/20 08:35:19;;;;;;;7.63;3.13;;;12.20;78.20;;;;;;5016623;28;20386;-66
2023/02/20 08:37:45;;;;;;;7.55;2.92;;;12.70;75.90;;;;;;5016144;28;20030;-67
2023/02/20 08:40:12;;;;;;;11.20;3.45;;;13.40;74.80;;;;;;5016302;28;20041;-67
2023/02/20 08:42:38;;;;;;;8.82;2.95;;;13.30;73.50;;;;;;5010858;28;20020;-66
2023/02/20 08:45:06;;;;;;;7.65;2.92;;;13.40;74.00;;;;;;5014786;28;20105;-67
2023/02/20 08:47:32;;;;;;;6.85;2.70;;;13.50;73.30;;;;;;5016518;28;20354;-66
2023/02/20 08:49:58;;;;;;;7.47;2.70;;;13.00;74.20;;;;;;4998359;28;20041;-66
2023/02/20 08:52:23;;;;;;;7.05;2.53;;;13.20;72.90;;;;;;4996866;28;20445;-67
2023/02/20 08:54:49;;;;;;;7.13;2.85;;;12.50;74.10;;;;;;4996644;28;20395;-66
2023/02/20 08:57:15;;;;;;;7.70;2.40;;;12.30;75.20;;;;;;5012203;28;20042;-67
2023/02/20 08:59:41;;;;;;;7.78;2.72;;;12.70;74.80;;;;;;5002937;28;20034;-66
2023/02/20 09:02:14;;;;;;;7.22;3.03;;;13.50;73.70;;;;;;4996814;28;20045;-67
2023/02/20 09:04:45;;;;;;;6.10;2.53;;;14.10;71.90;;;;;;4996768;28;20023;-67
2023/02/20 09:07:12;;;;;;;6.10;1.80;;;13.90;70.90;;;;;;4996701;28;20053;-66
2023/02/20 09:09:37;;;;;;;6.82;2.30;;;13.00;71.40;;;;;;5005032;28;20025;-66
2023/02/20 09:12:03;;;;;;;6.57;2.53;;;12.70;72.80;;;;;;5021742;28;20032;-66
2023/02/20 09:14:29;;;;;;;7.38;3.00;;;12.40;73.80;;;;;;5009727;28;20038;-66
2023/02/20 09:16:54;;;;;;;7.53;2.15;;;11.90;74.40;;;;;;4997126;28;20037;-66
2023/02/20 09:19:20;;;;;;;7.15;2.53;;;12.20;74.50;;;;;;4996424;28;20035;-66
2023/02/20 09:21:49;;;;;;;7.32;2.25;;;12.50;74.50;;;;;;4996684;28;20068;-66
2023/02/20 09:24:15;;;;;;;5.78;2.00;;;13.10;72.70;;;;;;4996597;28;20026;-66
2023/02/20 09:26:40;;;;;;;7.47;2.03;;;12.70;72.40;;;;;;5005434;28;20321;-66
2023/02/20 09:29:06;;;;;;;8.48;2.47;;;12.90;72.40;;;;;;5014915;28;20028;-66
2023/02/20 09:31:31;;;;;;;6.50;2.20;;;12.70;72.80;;;;;;5014946;28;20133;-66
2023/02/20 09:33:57;;;;;;;5.60;2.05;;;12.90;72.40;;;;;;5006951;28;20077;-66
2023/02/20 09:36:22;;;;;;;9.80;2.20;;;13.00;72.70;;;;;;5010576;28;20035;-66
2023/02/20 09:38:48;;;;;;;4.13;1.73;;;13.30;71.10;;;;;;5015305;28;20120;-66
2023/02/20 09:41:40;;;;;;;7.80;2.30;;;13.30;71.20;;;;;;5013504;28;20049;-66
2023/02/20 09:44:10;;;;;;;7.57;2.17;;;13.50;71.50;;;;;;5002695;28;20045;-66
2023/02/20 09:46:36;;;;;;;7.20;2.65;;;13.80;70.40;;;;;;5018515;28;20307;-66
2023/02/20 09:49:13;;;;;;;7.15;2.33;;;13.70;71.30;;;;;;5017505;28;20025;-66
2023/02/20 09:51:43;;;;;;;8.32;2.33;;;14.00;71.50;;;;;;5014806;28;20022;-66
2023/02/20 09:54:32;;;;;;;7.82;2.25;;;14.20;69.70;;;;;;5014348;28;20046;-66
2023/02/20 09:57:00;;;;;;;8.55;2.42;;;14.20;70.00;;;;;;5017213;28;20044;-66
2023/02/20 09:59:33;;;;;;;9.77;2.35;;;14.20;70.10;;;;;;5010858;28;20037;-66
2023/02/20 10:02:13;;;;;;;6.35;1.92;;;14.20;70.60;;;;;;5013828;28;20030;-66
2023/02/20 10:04:43;;;;;;;7.18;2.58;;;14.20;69.80;;;;;;5015891;28;20084;-66
2023/02/20 10:07:22;;;;;;;9.65;2.70;;;13.90;70.30;;;;;;5017188;28;20034;-65
2023/02/20 10:09:51;;;;;;;7.38;2.40;;;13.80;71.40;;;;;;5006273;28;20100;-66
2023/02/20 10:12:22;;;;;;;8.20;2.88;;;14.20;70.00;;;;;;5018733;28;20038;-65
2023/02/20 10:15:04;;;;;;;7.20;2.63;;;14.20;69.90;;;;;;5045126;28;20729;-65
2023/02/20 10:17:52;;;;;;;8.02;2.30;;;14.50;69.80;;;;;;5005448;28;20041;-67
2023/02/20 10:20:30;;;;;;;10.20;2.35;;;14.20;70.00;;;;;;5010235;28;20021;-67
2023/02/20 10:23:07;;;;;;;6.97;2.15;;;14.30;70.20;;;;;;5019298;28;20486;-66
2023/02/20 10:25:38;;;;;;;6.60;2.03;;;14.70;69.90;;;;;;5013456;28;20026;-66
2023/02/20 10:28:17;;;;;;;7.93;2.83;;;15.00;68.60;;;;;;4999168;28;20107;-67
2023/02/20 10:31:04;;;;;;;7.03;2.25;;;14.70;69.10;;;;;;5006841;28;20048;-67
2023/02/20 10:33:40;;;;;;;6.72;2.13;;;14.80;69.60;;;;;;5017643;28;20108;-66
2023/02/20 10:36:36;;;;;;;7.78;2.58;;;15.10;69.00;;;;;;5013328;28;20034;-66
2023/02/20 10:39:10;;;;;;;5.55;2.28;;;15.10;68.30;;;;;;5016691;28;20022;-66
2023/02/20 10:41:39;;;;;;;8.82;2.60;;;15.10;68.20;;;;;;5012130;28;20034;-66
2023/02/20 10:44:22;;;;;;;5.40;2.17;;;15.00;68.60;;;;;;5018831;28;20118;-66
2023/02/20 10:47:03;;;;;;;8.02;2.47;;;14.20;69.50;;;;;;5017565;28;20033;-66
2023/02/20 10:49:38;;;;;;;5.82;2.25;;;13.80;70.80;;;;;;5011962;28;20113;-67
2023/02/20 10:52:09;;;;;;;5.13;1.88;;;13.70;71.70;;;;;;5003275;28;20029;-67
2023/02/20 10:54:43;;;;;;;5.65;1.88;;;14.10;71.70;;;;;;5016973;28;20042;-67
2023/02/20 10:57:42;;;;;;;5.72;1.75;;;14.60;69.70;;;;;;5016681;28;20026;-66
2023/02/20 11:00:19;;;;;;;6.55;2.08;;;14.40;70.00;;;;;;5016459;28;20076;-66
2023/02/20 11:03:00;;;;;;;7.10;2.13;;;14.50;69.40;;;;;;5018219;28;20022;-66
2023/02/20 11:05:33;;;;;;;6.93;1.70;;;14.60;69.90;;;;;;5017450;28;20022;-66
2023/02/20 11:07:59;;;;;;;5.93;1.77;;;14.90;69.50;;;;;;5017750;28;20037;-66
2023/02/20 11:10:24;;;;;;;8.43;1.95;;;15.00;68.70;;;;;;5016674;28;20040;-67
2023/02/20 11:12:55;;;;;;;5.95;1.85;;;15.20;68.70;;;;;;5018423;28;20030;-66
2023/02/20 11:15:24;;;;;;;6.07;2.17;;;15.00;68.00;;;;;;5013741;28;20085;-66
2023/02/20 11:17:51;;;;;;;4.93;1.40;;;14.90;68.60;;;;;;4998495;28;20053;-66
2023/02/20 11:20:34;;;;;;;7.50;1.80;;;14.90;68.40;;;;;;4998528;28;20077;-66
2023/02/20 11:23:00;;;;;;;4.68;1.50;;;15.10;68.30;;;;;;5003405;28;20030;-66
2023/02/20 11:25:26;;;;;;;6.32;2.03;;;15.20;67.90;;;;;;5006056;28;20061;-66
2023/02/20 11:27:57;;;;;;;6.30;1.90;;;15.20;68.40;;;;;;5012905;28;20049;-66
2023/02/20 11:30:37;;;;;;;5.97;1.60;;;15.00;68.30;;;;;;5016728;28;20061;-67
2023/02/20 11:33:18;;;;;;;7.32;2.00;;;15.00;68.50;;;;;;4999217;28;20042;-67
2023/02/20 11:35:57;;;;;;;6.65;1.63;;;15.50;68.20;;;;;;5010001;28;20108;-66
2023/02/20 11:38:22;;;;;;;5.55;1.77;;;15.50;67.00;;;;;;5007749;28;20123;-66
2023/02/20 11:41:00;;;;;;;4.90;1.58;;;15.10;68.10;;;;;;5016447;28;20026;-66
2023/02/20 11:43:27;;;;;;;4.10;1.38;;;14.90;67.70;;;;;;5012421;28;20497;-66
2023/02/20 11:46:11;;;;;;;7.47;1.60;;;14.70;68.00;;;;;;5014976;28;20026;-66
2023/02/20 11:48:37;;;;;;;5.63;1.63;;;14.70;68.20;;;;;;5020431;28;20113;-66
2023/02/20 11:51:04;;;;;;;4.05;1.55;;;14.90;68.20;;;;;;5000987;28;20110;-66
2023/02/20 11:53:32;;;;;;;4.25;1.50;;;15.10;67.30;;;;;;5006771;28;20385;-66
2023/02/20 11:56:17;;;;;;;5.40;1.65;;;15.00;67.30;;;;;;5002259;28;20431;-66
2023/02/20 11:58:45;;;;;;;4.80;1.40;;;14.80;68.00;;;;;;5001059;28;20022;-66
2023/02/20 12:01:31;;;;;;;4.75;1.55;;;14.70;67.40;;;;;;5015018;28;20033;-66
2023/02/20 12:03:58;;;;;;;4.88;1.67;;;15.00;67.40;;;;;;5006337;28;20093;-66
2023/02/20 12:06:41;;;;;;;5.75;1.60;;;15.10;66.80;;;;;;5015136;28;20040;-66
2023/02/20 12:09:13;;;;;;;5.67;2.10;;;15.50;66.30;;;;;;5015761;28;20036;-66
2023/02/20 12:11:39;;;;;;;5.80;1.85;;;15.40;65.90;;;;;;5013510;28;20038;-66
2023/02/20 12:14:14;;;;;;;7.40;2.20;;;15.50;66.00;;;;;;5008187;28;20036;-66
2023/02/20 12:16:48;;;;;;;5.60;1.80;;;15.50;65.50;;;;;;5004284;28;20073;-66
2023/02/20 12:19:25;;;;;;;6.82;1.45;;;15.10;66.60;;;;;;5012375;28;20026;-66
2023/02/20 12:22:25;;;;;;;4.78;1.50;;;15.10;66.80;;;;;;5010505;28;20024;-66
2023/02/20 12:25:00;;;;;;;3.97;1.30;;;15.50;66.30;;;;;;5008213;28;20022;-66
2023/02/20 12:27:47;;;;;;;4.78;1.67;;;15.40;65.20;;;;;;5018059;28;20053;-66
2023/02/20 12:30:36;;;;;;;6.90;1.73;;;15.20;65.40;;;;;;5015674;28;20026;-66
2023/02/20 12:33:28;;;;;;;4.13;1.38;;;14.90;66.10;;;;;;5016336;28;20026;-66
2023/02/20 12:36:17;;;;;;;5.03;1.65;;;15.00;66.80;;;;;;5019768;28;20383;-66
2023/02/20 12:38:48;;;;;;;4.75;1.40;;;15.10;67.30;;;;;;5012338;28;20034;-66
2023/02/20 12:41:39;;;;;;;3.58;1.33;;;15.20;65.90;;;;;;5010572;28;20033;-66
2023/02/20 12:44:26;;;;;;;3.58;1.10;;;15.10;66.30;;;;;;5013888;28;20030;-66
2023/02/20 12:47:18;;;;;;;3.28;1.30;;;15.30;66.00;;;;;;5016411;28;20034;-65
2023/02/20 12:49:59;;;;;;;4.35;1.25;;;15.40;65.60;;;;;;5015819;28;20422;-66
2023/02/20 12:52:37;;;;;;;2.88;1.13;;;15.60;65.10;;;;;;5005922;28;20152;-66
2023/02/20 12:55:28;;;;;;;4.55;1.13;;;15.60;64.60;;;;;;5007049;28;20042;-66
2023/02/20 12:58:18;;;;;;;3.88;1.25;;;15.40;64.70;;;;;;5014438;28;20369;-66
2023/02/20 13:00:49;;;;;;;3.90;1.10;;;15.40;65.00;;;;;;5005517;28;20049;-65
2023/02/20 13:03:36;;;;;;;7.65;1.65;;;15.20;65.90;;;;;;5005817;28;20026;-66
2023/02/20 13:06:01;;;;;;;3.38;1.27;;;15.40;65.30;;;;;;4998154;28;20323;-66
2023/02/20 13:08:39;;;;;;;3.47;1.23;;;15.30;64.80;;;;;;5007757;28;20109;-66
2023/02/20 13:11:13;;;;;;;4.28;1.30;;;15.30;63.20;;;;;;5005209;28;20117;-66
2023/02/20 13:14:03;;;;;;;5.10;1.23;;;15.40;63.80;;;;;;5008845;28;20323;-66
2023/02/20 13:16:55;;;;;;;4.75;1.00;;;15.50;63.10;;;;;;5014148;28;20330;-65
2023/02/20 13:19:36;;;;;;;4.07;1.30;;;15.60;63.70;;;;;;5029480;28;20030;-66
2023/02/20 13:22:01;;;;;;;2.88;1.13;;;15.70;62.30;;;;;;5005014;28;20030;-65